Time;durP1;ratioP1;P1;durP2;ratioP2;P2;SDS_P1;SDS_P2;PMS_P1;PMS_P2;Temp;Humidity;BMP_temperature;BMP_pressure;BME280_temperature;BME280_humidity;BME280_pressure;Samples;Min_cycle;Max_cycle;Signal;HPM_P1;HPM_P2
2021/10/28 00:12:54;;;;;;;2.45;2.25;;;18.00;67.30;;;;;;5073253;28;20247;-61
2021/10/28 00:15:28;;;;;;;2.20;1.67;;;18.00;67.30;;;;;;5071822;28;20166;-62
2021/10/28 00:20:29;;;;;;;2.42;2.13;;;17.90;67.20;;;;;;5072663;28;20216;-60
2021/10/28 00:22:55;;;;;;;2.25;2.05;;;17.90;67.20;;;;;;5073510;28;20521;-60
2021/10/28 00:25:21;;;;;;;1.80;1.70;;;17.90;67.20;;;;;;5073572;28;20210;-61
2021/10/28 00:27:49;;;;;;;2.00;1.90;;;17.90;67.30;;;;;;5072231;28;20198;-61
2021/10/28 00:30:16;;;;;;;1.90;1.80;;;17.90;67.20;;;;;;5073242;28;20253;-62
2021/10/28 00:32:42;;;;;;;3.30;1.92;;;17.90;67.20;;;;;;5073017;28;20174;-62
2021/10/28 00:35:08;;;;;;;2.08;1.88;;;17.90;67.20;;;;;;5072415;28;20215;-61
2021/10/28 00:37:33;;;;;;;1.75;1.52;;;18.00;67.20;;;;;;5072909;28;20178;-62
2021/10/28 00:39:59;;;;;;;2.08;1.88;;;17.90;67.20;;;;;;5073237;28;20190;-61
2021/10/28 00:42:24;;;;;;;2.30;2.10;;;17.90;67.20;;;;;;5072186;28;20694;-62
2021/10/28 00:44:50;;;;;;;1.83;1.73;;;17.90;67.20;;;;;;5071786;28;20178;-62
2021/10/28 00:47:15;;;;;;;2.00;1.88;;;17.90;67.20;;;;;;5073318;28;20187;-62
2021/10/28 00:49:41;;;;;;;1.95;1.75;;;17.90;67.20;;;;;;5072000;28;20171;-62
2021/10/28 00:52:07;;;;;;;2.03;1.83;;;17.90;67.10;;;;;;5072787;28;20637;-61
2021/10/28 00:54:32;;;;;;;3.42;2.17;;;17.90;67.10;;;;;;5072776;28;20177;-62
2021/10/28 00:56:58;;;;;;;1.98;1.58;;;17.90;67.10;;;;;;5072283;28;20174;-62
2021/10/28 00:59:24;;;;;;;2.28;2.05;;;17.80;67.00;;;;;;5071800;28;20198;-63
2021/10/28 01:01:49;;;;;;;2.00;1.90;;;17.80;67.10;;;;;;5072432;28;20210;-62
2021/10/28 01:04:15;;;;;;;1.80;1.70;;;17.90;67.10;;;;;;5072236;28;20173;-61
2021/10/28 01:06:40;;;;;;;1.70;1.60;;;17.80;67.80;;;;;;5072649;28;20171;-61
2021/10/28 01:09:07;;;;;;;2.15;2.00;;;17.80;67.00;;;;;;5055101;28;20170;-61
2021/10/28 01:11:32;;;;;;;2.38;2.03;;;17.80;67.00;;;;;;5071954;28;20179;-61
2021/10/28 01:13:58;;;;;;;1.70;1.60;;;17.80;67.00;;;;;;5071663;28;20526;-62
2021/10/28 01:16:24;;;;;;;1.90;1.80;;;17.80;67.00;;;;;;5071972;28;20223;-62
2021/10/28 01:18:49;;;;;;;1.65;1.55;;;17.80;67.00;;;;;;5072783;28;20177;-62
2021/10/28 01:21:15;;;;;;;1.80;1.70;;;17.80;67.00;;;;;;5072781;28;20221;-61
2021/10/28 01:23:41;;;;;;;2.00;1.90;;;17.80;67.00;;;;;;5071740;28;20182;-62
2021/10/28 01:26:09;;;;;;;1.80;1.70;;;17.80;67.00;;;;;;5072798;28;20201;-61
2021/10/28 01:28:36;;;;;;;3.58;2.25;;;17.80;67.00;;;;;;5072501;28;20228;-62
2021/10/28 01:31:03;;;;;;;2.50;1.52;;;17.80;67.00;;;;;;5072563;28;20189;-62
2021/10/28 01:33:31;;;;;;;1.98;1.77;;;17.80;67.00;;;;;;5072423;28;20182;-63
2021/10/28 01:35:57;;;;;;;2.20;1.70;;;17.80;67.00;;;;;;5072761;28;20182;-62
2021/10/28 01:38:22;;;;;;;1.83;1.67;;;17.80;67.00;;;;;;5071867;28;20170;-62
2021/10/28 01:40:58;;;;;;;2.33;1.83;;;17.80;67.00;;;;;;5072108;28;20287;-62
2021/10/28 01:43:24;;;;;;;1.73;1.63;;;17.80;67.00;;;;;;5072244;28;20225;-62
2021/10/28 01:45:50;;;;;;;2.03;1.90;;;17.80;67.00;;;;;;5071536;28;20655;-62
2021/10/28 01:48:17;;;;;;;2.13;1.58;;;17.70;66.90;;;;;;5075375;28;20649;-62
2021/10/28 01:50:42;;;;;;;1.80;1.70;;;17.70;66.90;;;;;;5076247;28;20220;-62
2021/10/28 01:53:11;;;;;;;2.17;1.75;;;17.70;66.90;;;;;;5075398;28;20567;-62
2021/10/28 01:55:37;;;;;;;2.10;2.00;;;17.70;66.90;;;;;;5074882;28;20183;-62
2021/10/28 01:58:02;;;;;;;1.80;1.70;;;17.70;66.90;;;;;;5075959;28;20231;-63
2021/10/28 02:00:28;;;;;;;1.80;1.70;;;17.70;66.90;;;;;;5075590;28;20258;-63
2021/10/28 02:02:55;;;;;;;1.90;1.80;;;17.70;66.90;;;;;;5076217;28;20751;-63
2021/10/28 02:05:22;;;;;;;1.77;1.67;;;17.70;66.90;;;;;;5076087;28;20185;-62
2021/10/28 02:07:47;;;;;;;1.80;1.70;;;17.70;66.90;;;;;;5075017;28;20178;-61
2021/10/28 02:10:13;;;;;;;1.73;1.63;;;17.70;66.80;;;;;;5076075;28;20174;-61
2021/10/28 02:12:38;;;;;;;1.98;1.70;;;17.70;66.90;;;;;;5075170;28;20174;-62
2021/10/28 02:15:06;;;;;;;1.73;1.63;;;17.70;66.80;;;;;;5075767;28;20167;-63
2021/10/28 02:17:32;;;;;;;2.08;1.80;;;17.70;66.90;;;;;;5075659;28;20197;-63
2021/10/28 02:19:57;;;;;;;2.17;2.00;;;17.70;66.90;;;;;;5074968;28;20633;-62
2021/10/28 02:22:23;;;;;;;1.75;1.65;;;17.70;66.90;;;;;;5075707;28;20190;-59
2021/10/28 02:24:48;;;;;;;1.80;1.70;;;17.70;66.80;;;;;;5075573;28;20178;-61
2021/10/28 02:27:14;;;;;;;1.85;1.75;;;17.70;66.80;;;;;;5074976;28;20166;-61
2021/10/28 02:29:39;;;;;;;1.70;1.60;;;17.70;66.80;;;;;;5075101;28;20173;-61
2021/10/28 02:32:05;;;;;;;1.52;1.42;;;17.70;66.80;;;;;;5075618;28;20633;-62
2021/10/28 02:34:31;;;;;;;1.75;1.65;;;17.60;66.80;;;;;;5074417;28;20316;-61
2021/10/28 02:36:56;;;;;;;1.75;1.65;;;17.60;66.80;;;;;;5075388;28;20179;-62
2021/10/28 02:39:22;;;;;;;2.28;1.60;;;17.60;66.80;;;;;;5075509;28;20167;-61
2021/10/28 02:41:47;;;;;;;2.20;1.55;;;17.60;66.80;;;;;;5074351;28;20202;-63
2021/10/28 02:44:13;;;;;;;2.75;1.73;;;17.60;66.80;;;;;;5075038;28;20690;-63
2021/10/28 02:46:42;;;;;;;1.77;1.67;;;17.60;66.80;;;;;;5075183;28;20267;-62
2021/10/28 02:49:11;;;;;;;1.88;1.77;;;17.60;66.80;;;;;;5074552;28;20262;-61
2021/10/28 02:51:38;;;;;;;1.92;1.77;;;17.60;66.80;;;;;;5074972;28;20178;-63
2021/10/28 02:54:04;;;;;;;1.67;1.58;;;17.60;66.80;;;;;;5075085;28;20177;-62
2021/10/28 02:56:29;;;;;;;1.60;1.50;;;17.60;66.80;;;;;;5074221;28;20269;-63
2021/10/28 02:58:55;;;;;;;1.67;1.58;;;17.60;66.80;;;;;;5073945;28;20240;-63
2021/10/28 03:01:21;;;;;;;1.90;1.70;;;17.60;66.80;;;;;;5075107;28;20210;-64
2021/10/28 03:03:46;;;;;;;2.38;1.75;;;17.60;66.80;;;;;;5073985;28;20205;-63
2021/10/28 03:06:12;;;;;;;1.75;1.65;;;17.60;66.80;;;;;;5074919;28;20641;-62
2021/10/28 03:08:37;;;;;;;2.00;1.73;;;17.60;66.80;;;;;;5074564;28;20206;-62
2021/10/28 03:11:06;;;;;;;1.70;1.60;;;17.60;66.80;;;;;;5074138;28;20170;-62
2021/10/28 03:13:33;;;;;;;1.67;1.58;;;17.60;66.80;;;;;;5074833;28;20174;-64
2021/10/28 03:16:00;;;;;;;2.00;1.90;;;17.60;66.80;;;;;;5074193;28;20182;-63
2021/10/28 03:26:19;;;;;;;1.67;1.58;;;17.50;66.70;;;;;;5074549;28;20178;-61
2021/10/28 03:28:44;;;;;;;1.67;1.58;;;17.60;66.80;;;;;;5074111;28;20162;-62
2021/10/28 03:31:10;;;;;;;1.75;1.65;;;17.50;66.70;;;;;;5073592;28;20178;-60
2021/10/28 03:33:37;;;;;;;1.63;1.52;;;17.50;66.70;;;;;;5074118;28;20166;-62
2021/10/28 03:36:06;;;;;;;1.63;1.52;;;17.50;66.80;;;;;;5074240;28;20175;-61
2021/10/28 03:38:45;;;;;;;1.67;1.48;;;17.50;66.70;;;;;;5073370;28;20590;-62
2021/10/28 04:00:05;;;;;;;1.58;1.48;;;17.50;66.70;;;;;;5072707;28;20640;-61
2021/10/28 04:29:26;;;;;;;1.75;1.65;;;17.40;66.60;;;;;;5073420;28;20173;-62
2021/10/28 04:31:51;;;;;;;2.97;1.98;;;17.40;66.50;;;;;;5073020;28;20171;-62
2021/10/28 04:34:17;;;;;;;1.80;1.70;;;17.40;66.50;;;;;;5072407;28;20235;-61
2021/10/28 04:36:43;;;;;;;1.90;1.80;;;17.40;66.50;;;;;;5073002;28;20176;-61
2021/10/28 04:39:09;;;;;;;1.85;1.75;;;17.40;66.50;;;;;;5073332;28;20170;-61
2021/10/28 04:41:35;;;;;;;1.70;1.60;;;17.40;66.50;;;;;;5072085;28;20214;-61
2021/10/28 04:44:01;;;;;;;1.73;1.63;;;17.40;66.50;;;;;;5072944;28;20704;-61
2021/10/28 04:46:26;;;;;;;1.73;1.63;;;17.40;66.50;;;;;;5073195;28;20178;-61
2021/10/28 04:48:52;;;;;;;2.00;1.50;;;17.40;66.50;;;;;;5071961;28;20163;-61
2021/10/28 04:51:17;;;;;;;1.77;1.67;;;17.40;67.40;;;;;;5073118;28;20182;-61
2021/10/28 04:53:43;;;;;;;1.80;1.70;;;17.40;66.50;;;;;;5072466;28;20582;-61
2021/10/28 04:56:08;;;;;;;2.55;2.00;;;17.40;66.50;;;;;;5072148;28;20174;-62
2021/10/28 04:58:34;;;;;;;1.83;1.73;;;17.40;66.50;;;;;;5072739;28;20194;-62
2021/10/28 05:00:59;;;;;;;1.90;1.80;;;17.40;66.50;;;;;;5072705;28;20248;-61
2021/10/28 05:03:25;;;;;;;1.88;1.77;;;17.40;66.50;;;;;;5072078;28;20212;-62
2021/10/28 05:05:51;;;;;;;1.98;1.88;;;17.40;66.50;;;;;;5072714;28;20208;-60
2021/10/28 05:08:16;;;;;;;1.80;1.48;;;17.40;66.50;;;;;;5072760;28;20217;-60
2021/10/28 05:10:42;;;;;;;2.20;2.00;;;17.50;66.70;;;;;;5071968;28;20170;-60
2021/10/28 05:13:12;;;;;;;2.00;1.90;;;17.50;66.80;;;;;;5072894;28;20232;-61
2021/10/28 05:15:45;;;;;;;1.80;1.70;;;17.50;66.50;;;;;;5071812;28;20273;-61
2021/10/28 05:18:10;;;;;;;1.98;1.88;;;17.50;66.40;;;;;;5072881;28;20178;-60
2021/10/28 05:20:36;;;;;;;1.63;1.50;;;17.60;66.60;;;;;;5072472;28;20286;-62
2021/10/28 05:23:02;;;;;;;1.70;1.60;;;17.60;67.20;;;;;;5074825;28;20257;-61
2021/10/28 05:25:28;;;;;;;1.80;1.70;;;17.60;66.50;;;;;;5076926;28;20261;-61
2021/10/28 05:27:53;;;;;;;1.75;1.65;;;17.60;66.40;;;;;;5076776;28;20209;-62
2021/10/28 05:30:19;;;;;;;2.03;1.92;;;17.50;66.40;;;;;;5075946;28;20178;-61
2021/10/28 05:32:44;;;;;;;1.92;1.83;;;17.50;66.40;;;;;;5076493;28;20171;-62
2021/10/28 05:35:11;;;;;;;1.50;1.40;;;17.50;66.40;;;;;;5076690;28;20166;-60
2021/10/28 05:37:36;;;;;;;1.73;1.63;;;17.50;66.40;;;;;;5075649;28;20213;-61
2021/10/28 05:40:03;;;;;;;1.90;1.80;;;17.50;66.40;;;;;;5076470;28;20202;-60
2021/10/28 05:42:29;;;;;;;1.90;1.80;;;17.50;66.40;;;;;;5076091;28;20581;-60
2021/10/28 05:44:54;;;;;;;1.70;1.60;;;17.50;66.50;;;;;;5074513;28;20179;-61
2021/10/28 05:47:20;;;;;;;1.73;1.63;;;17.50;66.50;;;;;;5076327;28;20236;-61
2021/10/28 05:49:46;;;;;;;1.80;1.67;;;17.40;66.40;;;;;;5076231;28;20617;-61
2021/10/28 05:52:11;;;;;;;2.00;1.90;;;17.40;66.40;;;;;;5075468;28;20220;-61
2021/10/28 05:54:37;;;;;;;1.83;1.73;;;17.40;66.40;;;;;;5076154;28;20212;-60
2021/10/28 05:57:03;;;;;;;2.65;1.70;;;17.40;66.40;;;;;;5076192;28;20185;-61
2021/10/28 05:59:28;;;;;;;1.80;1.70;;;17.40;66.30;;;;;;5075012;28;20187;-61
2021/10/28 06:01:54;;;;;;;1.58;1.40;;;17.40;66.30;;;;;;5075959;28;20293;-60
2021/10/28 06:04:19;;;;;;;1.70;1.60;;;17.40;66.30;;;;;;5076221;28;20176;-60
2021/10/28 06:06:45;;;;;;;2.00;1.83;;;17.40;66.30;;;;;;5075208;28;20179;-59
2021/10/28 06:09:10;;;;;;;1.58;1.45;;;17.40;66.40;;;;;;5075817;28;20244;-61
2021/10/28 06:11:36;;;;;;;1.83;1.67;;;17.40;66.40;;;;;;5075633;28;20511;-61
2021/10/28 06:14:02;;;;;;;1.92;1.83;;;17.40;66.40;;;;;;5075159;28;20205;-61
2021/10/28 06:16:28;;;;;;;1.73;1.63;;;17.50;66.50;;;;;;5076076;28;20194;-62
2021/10/28 06:18:53;;;;;;;1.80;1.70;;;17.50;66.40;;;;;;5075190;28;20205;-61
2021/10/28 06:21:24;;;;;;;2.42;1.95;;;17.50;66.30;;;;;;5075733;28;20734;-61
2021/10/28 06:23:49;;;;;;;2.20;1.92;;;17.50;66.30;;;;;;5075497;28;20179;-61
2021/10/28 06:26:15;;;;;;;1.73;1.63;;;17.50;66.30;;;;;;5075018;28;20220;-61
2021/10/28 06:28:41;;;;;;;2.10;1.90;;;17.50;66.30;;;;;;5075494;28;20174;-61
2021/10/28 06:31:06;;;;;;;1.70;1.60;;;17.40;66.20;;;;;;5075736;28;20621;-61
2021/10/28 06:33:35;;;;;;;1.95;1.80;;;17.50;66.30;;;;;;5074389;28;20633;-62
2021/10/28 06:36:03;;;;;;;1.90;1.80;;;17.50;66.30;;;;;;5075651;28;20197;-61
2021/10/28 06:38:32;;;;;;;2.42;1.95;;;17.50;66.40;;;;;;5075197;28;20525;-62
2021/10/28 06:40:57;;;;;;;1.63;1.52;;;17.50;66.30;;;;;;5074620;28;20297;-61
2021/10/28 06:43:30;;;;;;;1.70;1.60;;;17.50;66.40;;;;;;5075056;28;20305;-61
2021/10/28 06:45:56;;;;;;;1.77;1.67;;;17.50;66.30;;;;;;5075544;28;20178;-62
2021/10/28 06:48:21;;;;;;;1.85;1.75;;;17.50;66.30;;;;;;5074574;28;20197;-60
2021/10/28 06:50:50;;;;;;;1.88;1.77;;;17.50;66.20;;;;;;5074946;28;20170;-60
2021/10/28 07:03:54;;;;;;;1.88;1.77;;;17.50;66.20;;;;;;5074943;28;20173;-62
2021/10/28 07:06:24;;;;;;;1.80;1.70;;;17.50;66.30;;;;;;5074815;28;20532;-66
2021/10/28 07:08:55;;;;;;;2.03;1.50;;;17.50;66.30;;;;;;5073886;28;20175;-65
2021/10/28 07:11:26;;;;;;;2.92;1.73;;;17.50;66.40;;;;;;5074751;28;20174;-64
2021/10/28 07:13:53;;;;;;;3.40;1.70;;;17.50;66.10;;;;;;5074479;28;20629;-64
2021/10/28 07:18:55;;;;;;;2.63;1.85;;;17.60;66.30;;;;;;5074297;28;20187;-64
2021/10/28 07:24:09;;;;;;;2.05;1.83;;;17.70;66.00;;;;;;5073637;28;20269;-63
2021/10/28 07:32:19;;;;;;;2.80;1.60;;;17.80;65.90;;;;;;5074789;28;20308;-65
2021/10/28 07:35:01;;;;;;;3.50;2.85;;;17.80;66.00;;;;;;5074183;28;20277;-65
2021/10/28 07:57:13;;;;;;;3.17;2.83;;;17.80;64.70;;;;;;5054081;28;20198;-63
2021/10/28 08:05:10;;;;;;;2.38;2.10;;;18.00;64.70;;;;;;5066568;28;20563;-64
2021/10/28 08:16:10;;;;;;;2.45;1.88;;;18.10;64.50;;;;;;5073149;28;20204;-63
2021/10/28 08:18:47;;;;;;;4.85;2.38;;;18.00;64.50;;;;;;5072264;28;20273;-63
2021/10/28 08:21:28;;;;;;;2.25;2.05;;;18.00;64.50;;;;;;5061796;28;20205;-62
2021/10/28 08:24:05;;;;;;;2.45;2.25;;;18.00;64.50;;;;;;5053318;28;20175;-62
2021/10/28 08:29:21;;;;;;;4.97;2.50;;;18.00;64.60;;;;;;5053186;28;20179;-62
2021/10/28 08:31:49;;;;;;;2.97;2.72;;;18.00;64.50;;;;;;5053035;28;20638;-63
2021/10/28 08:34:15;;;;;;;2.45;2.25;;;18.10;64.60;;;;;;5052667;28;20591;-63
2021/10/28 08:36:45;;;;;;;2.17;2.08;;;18.10;64.60;;;;;;5052882;28;20183;-63
2021/10/28 08:39:10;;;;;;;2.25;2.05;;;18.10;64.50;;;;;;5053020;28;20188;-64
2021/10/28 08:41:36;;;;;;;2.53;2.05;;;18.10;64.50;;;;;;5052002;28;20294;-62
2021/10/28 08:44:01;;;;;;;3.00;2.38;;;18.10;64.50;;;;;;5051153;28;20305;-62
2021/10/28 08:46:28;;;;;;;2.95;2.00;;;18.20;64.60;;;;;;5052690;28;20248;-62
2021/10/28 08:48:56;;;;;;;2.92;2.50;;;18.20;64.50;;;;;;5051067;28;20175;-63
2021/10/28 08:54:20;;;;;;;4.70;2.30;;;18.20;64.50;;;;;;5051946;28;20492;-62
2021/10/28 08:59:29;;;;;;;5.60;2.85;;;18.40;64.70;;;;;;5052698;28;20622;-63
2021/10/28 09:28:12;;;;;;;4.25;2.80;;;18.70;65.00;;;;;;5067884;28;20186;-63
2021/10/28 09:30:46;;;;;;;3.47;3.00;;;18.70;65.20;;;;;;5071658;28;20186;-62
2021/10/28 09:33:26;;;;;;;2.90;2.60;;;18.80;65.20;;;;;;5072312;28;20200;-65
2021/10/28 09:44:18;;;;;;;5.35;2.90;;;18.80;65.20;;;;;;5071052;28;20245;-62
2021/10/28 09:47:03;;;;;;;6.63;2.95;;;18.80;65.50;;;;;;5071949;28;20270;-62
2021/10/28 09:52:27;;;;;;;4.03;2.47;;;18.80;65.60;;;;;;5071617;28;20244;-62
2021/10/28 09:57:36;;;;;;;4.10;2.70;;;18.90;65.90;;;;;;5064471;28;20179;-64
2021/10/28 09:57:59;;;;;;;5.93;2.42;;;18.90;65.90;;;;;;5051010;28;20515;-63
2021/10/28 10:00:35;;;;;;;4.47;2.50;;;18.90;65.90;;;;;;5050807;28;20191;-60
2021/10/28 10:03:09;;;;;;;3.47;2.90;;;18.90;65.90;;;;;;5052062;28;20206;-60
2021/10/28 10:05:35;;;;;;;7.10;2.60;;;18.90;66.00;;;;;;5049927;28;20176;-61
2021/10/28 10:08:03;;;;;;;4.75;2.80;;;18.80;65.80;;;;;;5052702;28;20179;-59
2021/10/28 10:10:29;;;;;;;5.05;3.60;;;18.80;65.80;;;;;;5055507;28;20660;-64
2021/10/28 10:12:58;;;;;;;3.28;2.92;;;18.80;65.70;;;;;;5054920;28;20679;-64
2021/10/28 10:15:24;;;;;;;4.57;3.08;;;18.80;65.80;;;;;;5055869;28;20277;-62
2021/10/28 10:17:53;;;;;;;4.38;3.03;;;18.90;65.90;;;;;;5055247;28;20167;-61
2021/10/28 10:20:20;;;;;;;5.20;3.20;;;18.80;65.90;;;;;;5053701;28;20182;-63
2021/10/28 10:22:52;;;;;;;5.72;3.17;;;18.80;66.00;;;;;;5055573;28;20254;-61
2021/10/28 10:25:44;;;;;;;4.60;2.95;;;18.80;66.00;;;;;;5053809;28;20176;-61
2021/10/28 10:29:21;;;;;;;4.35;2.60;;;18.80;66.10;;;;;;5055628;28;20171;-61
2021/10/28 11:23:35;;;;;;;3.95;3.65;;;19.10;66.10;;;;;;5073922;28;20698;-60
2021/10/28 11:29:15;;;;;;;6.10;3.90;;;19.20;65.90;;;;;;5073597;28;20246;-60
2021/10/28 12:44:25;;;;;;;4.43;4.00;;;19.30;65.20;;;;;;5052381;28;20739;-60
2021/10/28 12:47:17;;;;;;;4.97;4.57;;;19.30;65.20;;;;;;5051627;28;20187;-61
2021/10/28 13:34:53;;;;;;;5.32;4.82;;;19.60;64.20;;;;;;5051776;28;20213;-59
2021/10/28 13:49:59;;;;;;;5.60;4.07;;;19.80;63.80;;;;;;5055396;28;20255;-60
2021/10/28 13:55:14;;;;;;;6.57;3.92;;;19.80;63.70;;;;;;5063147;28;20193;-60
2021/10/28 14:17:42;;;;;;;6.25;3.97;;;19.70;63.90;;;;;;5075328;28;20173;-60
2021/10/28 14:22:34;;;;;;;4.28;3.97;;;19.60;64.10;;;;;;5075434;28;20621;-59
2021/10/28 14:36:26;;;;;;;3.75;3.45;;;19.40;64.50;;;;;;5075171;28;20181;-61
2021/10/28 15:01:06;;;;;;;3.72;3.42;;;19.10;65.20;;;;;;5054204;28;20170;-60
2021/10/28 15:30:20;;;;;;;3.53;3.22;;;18.90;65.90;;;;;;5063261;28;20650;-63
2021/10/28 15:35:37;;;;;;;2.78;2.58;;;18.90;65.90;;;;;;5060622;28;20158;-64
2021/10/28 15:38:22;;;;;;;4.28;3.50;;;18.90;65.90;;;;;;5063503;28;20167;-63
2021/10/28 15:52:05;;;;;;;3.63;3.28;;;18.90;66.70;;;;;;5063699;28;20206;-63
2021/10/28 15:57:11;;;;;;;4.00;3.70;;;18.90;66.00;;;;;;5064721;28;20167;-63
2021/10/28 15:59:52;;;;;;;3.53;3.08;;;18.80;65.90;;;;;;5062165;28;20241;-63
2021/10/28 16:24:12;;;;;;;5.18;3.60;;;19.00;65.90;;;;;;5072633;28;20284;-61
2021/10/28 16:26:38;;;;;;;7.03;4.15;;;19.10;65.80;;;;;;5072887;28;20178;-63
2021/10/28 16:29:07;;;;;;;6.30;3.90;;;19.30;65.50;;;;;;5073131;28;20626;-63
2021/10/28 16:31:34;;;;;;;6.00;4.15;;;19.40;65.10;;;;;;5072459;28;20192;-64
2021/10/28 16:33:59;;;;;;;5.90;3.90;;;19.60;64.80;;;;;;5073192;28;20182;-63
2021/10/28 16:36:25;;;;;;;5.00;3.30;;;19.70;64.20;;;;;;5073086;28;20174;-62
2021/10/28 16:38:52;;;;;;;4.43;3.15;;;19.90;64.00;;;;;;5072202;28;20173;-63
2021/10/28 16:41:17;;;;;;;5.55;3.28;;;20.00;63.80;;;;;;5073087;28;20210;-63
2021/10/28 16:43:43;;;;;;;3.75;3.25;;;20.10;63.60;;;;;;5072486;28;20305;-62
2021/10/28 16:46:08;;;;;;;4.43;3.35;;;20.10;63.40;;;;;;5072298;28;20534;-64
2021/10/28 16:48:35;;;;;;;6.70;3.33;;;20.30;62.90;;;;;;5072778;28;20167;-63
2021/10/28 16:51:01;;;;;;;5.43;3.00;;;20.50;62.40;;;;;;5073206;28;20178;-62
2021/10/28 16:53:26;;;;;;;3.88;2.65;;;20.60;62.10;;;;;;5072496;28;20253;-63
2021/10/28 16:55:52;;;;;;;5.60;3.03;;;20.70;61.60;;;;;;5056901;28;20206;-63
2021/10/28 16:58:17;;;;;;;3.83;2.95;;;20.70;61.50;;;;;;5052787;28;20167;-64
2021/10/28 17:00:43;;;;;;;4.65;2.78;;;20.80;61.60;;;;;;5051854;28;20175;-63
2021/10/28 17:03:08;;;;;;;4.50;3.03;;;20.70;61.50;;;;;;5052666;28;20183;-63
2021/10/28 17:05:34;;;;;;;3.08;2.70;;;20.70;61.50;;;;;;5052528;28;20181;-63
2021/10/28 17:07:59;;;;;;;5.40;3.25;;;20.60;61.70;;;;;;5052295;28;20170;-63
2021/10/28 17:10:25;;;;;;;5.00;2.60;;;20.50;62.00;;;;;;5052556;28;20167;-63
2021/10/28 17:12:50;;;;;;;5.05;2.72;;;20.40;62.30;;;;;;5052597;28;20171;-62
2021/10/28 17:15:16;;;;;;;3.17;2.83;;;20.30;62.60;;;;;;5050944;28;20243;-62
2021/10/28 17:17:42;;;;;;;4.18;2.65;;;20.30;63.10;;;;;;5051477;28;20190;-62
2021/10/28 17:20:08;;;;;;;4.30;2.50;;;20.20;63.10;;;;;;5051798;28;20179;-61
2021/10/28 17:22:36;;;;;;;3.53;2.78;;;20.10;63.20;;;;;;5052144;28;20207;-61
2021/10/28 17:25:04;;;;;;;3.70;2.75;;;20.00;63.30;;;;;;5052648;28;20203;-62
2021/10/28 17:27:30;;;;;;;3.50;2.28;;;20.00;63.50;;;;;;5051638;28;20518;-62
2021/10/28 17:29:56;;;;;;;4.72;2.38;;;19.90;63.60;;;;;;5051478;28;20190;-63
2021/10/28 17:32:21;;;;;;;2.55;2.20;;;19.90;63.70;;;;;;5052574;28;20352;-63
2021/10/28 17:34:47;;;;;;;3.08;2.42;;;19.80;63.80;;;;;;5051520;28;20179;-64
2021/10/28 17:37:12;;;;;;;4.03;2.55;;;19.80;64.00;;;;;;5052350;28;20167;-64
2021/10/28 17:39:38;;;;;;;4.35;2.85;;;19.80;64.10;;;;;;5052020;28;20178;-63
2021/10/28 17:42:04;;;;;;;3.22;2.42;;;19.80;64.00;;;;;;5051805;28;20564;-63
2021/10/28 17:44:53;;;;;;;4.28;2.50;;;19.80;63.80;;;;;;5051804;28;20234;-63
2021/10/28 17:47:19;;;;;;;3.17;2.58;;;19.80;63.90;;;;;;5052359;28;20293;-63
2021/10/28 17:49:45;;;;;;;3.72;2.75;;;19.80;63.70;;;;;;5051275;28;20634;-63
2021/10/28 17:52:11;;;;;;;3.25;2.53;;;19.80;63.80;;;;;;5052188;28;20676;-59
2021/10/28 17:54:36;;;;;;;6.47;2.63;;;19.70;63.90;;;;;;5057119;28;20174;-61
2021/10/28 17:57:04;;;;;;;3.10;2.80;;;19.70;64.10;;;;;;5071732;28;20178;-62
2021/10/28 17:59:30;;;;;;;5.13;3.40;;;19.60;64.20;;;;;;5072212;28;20194;-62
2021/10/28 18:01:56;;;;;;;5.53;2.75;;;19.60;64.70;;;;;;5072463;28;20226;-61
2021/10/28 18:04:22;;;;;;;3.13;2.83;;;19.60;64.80;;;;;;5071418;28;20181;-61
2021/10/28 18:06:49;;;;;;;4.03;3.00;;;19.60;64.70;;;;;;5071949;28;20261;-60
2021/10/28 18:09:14;;;;;;;4.57;2.72;;;19.70;64.80;;;;;;5071418;28;20175;-60
2021/10/28 18:11:40;;;;;;;5.05;3.00;;;19.70;64.80;;;;;;5070869;28;20170;-60
2021/10/28 18:14:11;;;;;;;3.60;2.70;;;19.70;64.90;;;;;;5071824;28;20171;-62
2021/10/28 18:16:36;;;;;;;4.57;2.78;;;19.70;64.80;;;;;;5071108;28;20178;-61
2021/10/28 18:19:04;;;;;;;2.83;2.53;;;19.70;64.80;;;;;;5071894;28;20175;-61
2021/10/28 18:21:29;;;;;;;2.97;2.72;;;19.70;64.80;;;;;;5071602;28;20210;-62
2021/10/28 18:23:56;;;;;;;3.97;2.60;;;19.70;64.80;;;;;;5070823;28;20632;-61
2021/10/28 18:26:25;;;;;;;4.68;3.05;;;19.60;64.80;;;;;;5072056;28;20178;-61
2021/10/28 18:28:52;;;;;;;3.97;2.97;;;19.60;64.90;;;;;;5072147;28;20167;-60
2021/10/28 18:31:17;;;;;;;4.22;2.80;;;19.60;64.90;;;;;;5074829;28;20177;-60
2021/10/28 18:33:43;;;;;;;4.55;3.03;;;19.60;64.80;;;;;;5075082;28;20250;-60
2021/10/28 18:36:11;;;;;;;4.57;2.95;;;19.70;64.90;;;;;;5075768;28;20186;-59
2021/10/28 18:38:36;;;;;;;3.33;2.78;;;19.60;64.80;;;;;;5074635;28;20171;-60
2021/10/28 18:41:02;;;;;;;4.05;3.03;;;19.60;64.80;;;;;;5075621;28;20206;-60
2021/10/28 18:43:27;;;;;;;5.18;3.13;;;19.60;64.70;;;;;;5075310;28;20656;-60
2021/10/28 18:45:53;;;;;;;3.42;2.67;;;19.60;64.70;;;;;;5074355;28;20708;-59
2021/10/28 18:48:19;;;;;;;3.28;2.65;;;19.60;64.70;;;;;;5075208;28;20531;-59
2021/10/28 18:50:44;;;;;;;4.38;2.80;;;19.50;64.60;;;;;;5075172;28;20201;-58
2021/10/28 18:53:10;;;;;;;4.28;3.28;;;19.60;64.70;;;;;;5074402;28;20674;-59
2021/10/28 18:55:36;;;;;;;4.05;2.92;;;19.60;64.60;;;;;;5061764;28;20187;-62
2021/10/28 18:58:02;;;;;;;5.47;3.20;;;19.60;64.70;;;;;;5054973;28;20642;-61
2021/10/28 19:00:28;;;;;;;4.22;2.92;;;19.60;64.80;;;;;;5054318;28;20175;-60
2021/10/28 19:02:53;;;;;;;2.85;2.58;;;19.60;64.80;;;;;;5054993;28;20222;-61
2021/10/28 19:05:21;;;;;;;4.38;2.92;;;19.60;64.60;;;;;;5054931;28;20508;-60
2021/10/28 19:07:47;;;;;;;3.72;3.20;;;19.60;64.60;;;;;;5054087;28;20584;-60
2021/10/28 19:10:12;;;;;;;3.65;2.75;;;19.60;64.50;;;;;;5054874;28;20683;-59
2021/10/28 19:12:38;;;;;;;3.00;2.70;;;19.60;64.50;;;;;;5054051;28;20266;-58
2021/10/28 19:15:04;;;;;;;4.20;3.40;;;19.60;64.40;;;;;;5054924;28;20266;-60
2021/10/28 19:17:30;;;;;;;3.42;2.35;;;19.60;64.40;;;;;;5054399;28;20171;-60
2021/10/28 19:19:56;;;;;;;3.85;2.60;;;19.60;64.40;;;;;;5053943;28;20178;-60
2021/10/28 19:22:29;;;;;;;3.40;2.80;;;19.50;64.50;;;;;;5054412;28;20613;-60
2021/10/28 19:24:54;;;;;;;2.92;2.30;;;19.50;64.50;;;;;;5054915;28;20172;-60
2021/10/28 19:27:20;;;;;;;3.35;2.60;;;19.60;64.40;;;;;;5053991;28;20186;-60
2021/10/28 19:29:51;;;;;;;3.45;2.78;;;19.50;64.40;;;;;;5054336;28;20178;-61
2021/10/28 19:32:22;;;;;;;4.53;2.78;;;19.60;64.40;;;;;;5054414;28;20186;-60
2021/10/28 19:34:48;;;;;;;3.35;3.00;;;19.60;64.40;;;;;;5053784;28;20170;-63
2021/10/28 19:37:22;;;;;;;5.88;2.80;;;19.50;64.40;;;;;;5054336;28;20171;-60
2021/10/28 19:46:09;;;;;;;5.25;3.10;;;19.50;64.80;;;;;;5054619;28;20288;-61
2021/10/28 19:48:17;;;;;;;6.30;2.90;;;19.50;65.00;;;;;;5053353;28;20178;-61
2021/10/28 19:50:44;;;;;;;4.57;2.63;;;19.50;65.00;;;;;;5053726;28;20226;-61
2021/10/28 19:53:10;;;;;;;4.57;2.90;;;19.50;65.00;;;;;;5054168;28;20226;-60
2021/10/28 19:55:38;;;;;;;4.78;2.97;;;19.50;65.00;;;;;;5064783;28;20637;-61
2021/10/28 19:58:06;;;;;;;4.72;3.47;;;19.50;65.00;;;;;;5073895;28;20641;-59
2021/10/28 20:05:46;;;;;;;4.97;3.10;;;19.50;64.90;;;;;;5073594;28;20523;-59
2021/10/28 20:13:49;;;;;;;3.05;2.58;;;19.50;65.00;;;;;;5073655;28;20639;-60
2021/10/28 20:21:29;;;;;;;3.75;2.75;;;19.50;65.10;;;;;;5073462;28;20210;-60
2021/10/28 20:23:55;;;;;;;3.25;2.92;;;19.50;65.20;;;;;;5072789;28;20178;-60
2021/10/28 20:26:21;;;;;;;4.05;2.70;;;19.50;65.10;;;;;;5073273;28;20186;-59
2021/10/28 20:28:48;;;;;;;4.63;3.03;;;19.50;65.20;;;;;;5073197;28;20179;-60
2021/10/28 20:31:17;;;;;;;3.92;2.97;;;19.50;65.10;;;;;;5072561;28;20698;-60
2021/10/28 20:33:48;;;;;;;4.10;3.08;;;19.50;65.10;;;;;;5072862;28;20625;-59
2021/10/28 20:37:05;;;;;;;5.68;2.67;;;19.50;65.20;;;;;;5073563;28;20177;-59
2021/10/28 20:39:03;;;;;;;3.55;2.42;;;19.50;65.40;;;;;;5072295;28;20210;-59
2021/10/28 20:41:29;;;;;;;2.80;2.45;;;19.50;65.50;;;;;;5073060;28;20225;-59
2021/10/28 20:43:56;;;;;;;4.20;2.63;;;19.40;65.50;;;;;;5072574;28;20570;-59
2021/10/28 20:46:23;;;;;;;3.72;3.15;;;19.40;65.60;;;;;;5073165;28;20182;-59
2021/10/28 20:48:50;;;;;;;6.43;2.60;;;19.40;65.60;;;;;;5072723;28;20209;-59
2021/10/28 20:51:16;;;;;;;4.82;2.42;;;19.40;65.70;;;;;;5072312;28;20231;-59
2021/10/28 20:53:42;;;;;;;3.15;2.80;;;19.40;65.70;;;;;;5072476;28;20550;-60
2021/10/28 20:56:07;;;;;;;2.78;2.53;;;19.30;65.70;;;;;;5055173;28;20179;-59
2021/10/28 20:58:33;;;;;;;4.40;2.78;;;19.30;65.80;;;;;;5051909;28;20181;-59
2021/10/28 21:00:58;;;;;;;2.75;2.55;;;19.30;65.80;;;;;;5052909;28;20195;-59
2021/10/28 21:03:24;;;;;;;3.75;2.42;;;19.20;65.80;;;;;;5052724;28;20262;-60
2021/10/28 21:05:49;;;;;;;3.15;2.55;;;19.30;65.90;;;;;;5051851;28;20175;-59
2021/10/28 21:08:15;;;;;;;3.00;2.42;;;19.30;66.00;;;;;;5053005;28;20171;-58
2021/10/28 21:10:40;;;;;;;5.63;3.00;;;19.30;66.00;;;;;;5052594;28;20225;-58